Terminal Aerodrome Forecast
Issued by NWS

Home | Current Version | Previous Version | Text Only | Print | Product List | Glossary On
Versions: 1 2 3 4 5 6 7 8 9 10 11 12
999
FTUS46 KSEW 260540
TAFCLM
TAF
KCLM 260540Z 2606/2706 30005KT P6SM -RA OVC040
     FM260900 28010KT P6SM -SHRA BKN035
     FM261200 28012KT P6SM VCSH BKN035
     FM262000 30014G25KT P6SM SCT050=

USA.gov is the U.S. government's official web portal to all federal, state and local government web resources and services.